Time;durP1;ratioP1;P1;durP2;ratioP2;P2;SDS_P1;SDS_P2;PMS_P1;PMS_P2;Temp;Humidity;BMP_temperature;BMP_pressure;BME280_temperature;BME280_humidity;BME280_pressure;Samples;Min_cycle;Max_cycle;Signal;HPM_P1;HPM_P2
2023/03/08 00:00:59;;;;;;;22.30;11.77;;;10.20;94.50;;;;;;6185742;23;20327;-65
2023/03/08 00:03:24;;;;;;;21.05;11.40;;;10.20;94.60;;;;;;6186056;23;20072;-65
2023/03/08 00:05:50;;;;;;;25.88;12.40;;;10.20;94.70;;;;;;6186467;23;20060;-66
2023/03/08 00:08:17;;;;;;;22.05;12.10;;;10.10;94.70;;;;;;6185848;23;20355;-66
2023/03/08 00:10:42;;;;;;;20.90;12.02;;;10.20;94.70;;;;;;6186065;23;20001;-66
2023/03/08 00:13:08;;;;;;;21.40;12.30;;;10.10;94.80;;;;;;6185943;23;20005;-64
2023/03/08 00:15:37;;;;;;;20.35;12.55;;;10.10;94.80;;;;;;6185842;23;20036;-66
2023/03/08 00:18:03;;;;;;;20.90;11.40;;;10.10;94.90;;;;;;6186172;23;20008;-67
2023/03/08 00:20:29;;;;;;;19.80;11.23;;;10.20;95.00;;;;;;6186039;23;20360;-65
2023/03/08 00:22:54;;;;;;;23.08;11.52;;;10.20;94.90;;;;;;6186051;23;19997;-68
2023/03/08 00:25:20;;;;;;;20.33;11.95;;;10.20;95.00;;;;;;6185903;23;20327;-67
2023/03/08 00:27:46;;;;;;;18.23;11.60;;;10.10;95.00;;;;;;6185813;23;20004;-67
2023/03/08 00:30:12;;;;;;;22.67;11.07;;;10.20;95.00;;;;;;6185475;23;20025;-64
2023/03/08 00:32:38;;;;;;;23.05;11.70;;;10.10;95.00;;;;;;6186048;23;20072;-65
2023/03/08 00:35:04;;;;;;;22.35;11.70;;;10.20;95.00;;;;;;6185642;23;20044;-64
2023/03/08 00:37:30;;;;;;;23.17;11.75;;;10.10;94.90;;;;;;6185837;23;19997;-65
2023/03/08 00:39:55;;;;;;;23.10;12.07;;;10.20;95.00;;;;;;6185946;23;20053;-70
2023/03/08 00:42:21;;;;;;;24.83;11.48;;;10.20;95.00;;;;;;6185779;23;20001;-67
2023/03/08 00:44:47;;;;;;;23.55;12.20;;;10.10;94.90;;;;;;6185632;23;20009;-65
2023/03/08 00:47:13;;;;;;;26.38;11.98;;;10.20;95.00;;;;;;6185222;23;20009;-68
2023/03/08 00:49:39;;;;;;;25.13;12.10;;;10.10;94.90;;;;;;6185412;23;20005;-65
2023/03/08 00:52:05;;;;;;;23.05;12.13;;;10.20;94.90;;;;;;6185759;23;19997;-71
2023/03/08 00:54:31;;;;;;;25.60;12.80;;;10.20;94.90;;;;;;6185750;23;20443;-68
2023/03/08 00:56:56;;;;;;;21.60;11.98;;;10.20;94.90;;;;;;6185529;23;19997;-66
2023/03/08 00:59:22;;;;;;;22.33;11.88;;;10.20;95.00;;;;;;6185751;23;20169;-68
2023/03/08 01:01:48;;;;;;;21.02;11.27;;;10.20;95.00;;;;;;6184292;23;19997;-64
2023/03/08 01:04:13;;;;;;;17.63;9.85;;;10.10;94.90;;;;;;6185770;23;20001;-66
2023/03/08 01:06:42;;;;;;;21.97;10.57;;;10.10;95.00;;;;;;6185786;23;20005;-65
2023/03/08 01:09:08;;;;;;;23.02;10.77;;;10.20;95.10;;;;;;6183863;23;20008;-67
2023/03/08 01:11:35;;;;;;;19.37;10.57;;;10.20;95.10;;;;;;6185541;23;20132;-64
2023/03/08 01:14:02;;;;;;;22.17;10.03;;;10.10;95.00;;;;;;6185420;23;20001;-67
2023/03/08 01:16:32;;;;;;;20.27;10.57;;;10.10;95.10;;;;;;6185310;23;20015;-67
2023/03/08 01:18:59;;;;;;;18.58;10.45;;;10.10;95.10;;;;;;6185653;23;20001;-64
2023/03/08 01:21:26;;;;;;;18.27;9.87;;;10.20;95.10;;;;;;6185411;23;20015;-65
2023/03/08 01:23:52;;;;;;;22.40;10.80;;;10.20;95.20;;;;;;6185163;23;20059;-68
2023/03/08 01:26:20;;;;;;;21.60;9.75;;;10.20;95.20;;;;;;6185182;23;20002;-65
2023/03/08 01:28:47;;;;;;;20.23;9.40;;;10.20;95.20;;;;;;6185730;23;20051;-66
2023/03/08 01:31:32;;;;;;;20.80;9.60;;;10.20;95.20;;;;;;6185385;23;20004;-67
2023/03/08 01:33:57;;;;;;;21.67;9.90;;;10.10;95.10;;;;;;6184986;23;20427;-65
2023/03/08 01:36:26;;;;;;;19.85;10.20;;;10.10;95.20;;;;;;6185576;23;20005;-69
2023/03/08 01:38:52;;;;;;;16.60;9.35;;;10.10;95.20;;;;;;6185013;23;20040;-64
2023/03/08 01:41:25;;;;;;;18.38;10.55;;;10.10;95.30;;;;;;6185214;23;20334;-68
2023/03/08 01:43:51;;;;;;;21.42;10.05;;;10.20;95.30;;;;;;6185138;23;20031;-66
2023/03/08 01:46:34;;;;;;;14.47;9.43;;;10.10;95.30;;;;;;6184914;23;20008;-69
2023/03/08 01:49:08;;;;;;;18.35;9.30;;;10.10;95.40;;;;;;6185166;23;20009;-68
2023/03/08 01:51:46;;;;;;;20.75;10.02;;;10.20;95.40;;;;;;6185166;23;20628;-65
2023/03/08 01:54:30;;;;;;;20.47;10.43;;;10.10;95.40;;;;;;6185306;23;20005;-70
2023/03/08 01:57:04;;;;;;;21.73;10.27;;;10.10;95.40;;;;;;6185272;23;20008;-65
2023/03/08 01:59:32;;;;;;;18.83;9.63;;;10.10;95.40;;;;;;6181713;23;20392;-67
2023/03/08 02:01:59;;;;;;;15.63;8.63;;;10.10;95.40;;;;;;6181908;23;20008;-65
2023/03/08 02:04:26;;;;;;;16.40;8.00;;;10.10;95.40;;;;;;6182719;23;20005;-68
2023/03/08 02:06:51;;;;;;;22.70;9.50;;;10.10;95.40;;;;;;6185175;23;20403;-67
2023/03/08 02:09:18;;;;;;;16.55;8.43;;;10.10;95.50;;;;;;6185089;23;20035;-65
2023/03/08 02:11:45;;;;;;;18.27;8.73;;;10.10;95.50;;;;;;6185062;23;20012;-64
2023/03/08 02:14:10;;;;;;;20.27;8.33;;;10.10;95.50;;;;;;6184050;23;20092;-66
2023/03/08 02:16:37;;;;;;;24.00;8.88;;;10.10;95.40;;;;;;6184713;23;20071;-66
2023/03/08 02:19:13;;;;;;;23.20;8.63;;;10.10;95.40;;;;;;6184933;23;19998;-66
2023/03/08 02:21:39;;;;;;;19.70;7.80;;;10.10;95.30;;;;;;6184895;23;20001;-66
2023/03/08 02:24:16;;;;;;;19.60;8.07;;;10.10;95.30;;;;;;6184887;23;20059;-66
2023/03/08 02:26:42;;;;;;;16.73;7.32;;;10.10;95.20;;;;;;6186735;23;20009;-69
2023/03/08 02:29:08;;;;;;;21.98;8.98;;;10.10;95.20;;;;;;6186263;23;20039;-67
2023/03/08 02:31:33;;;;;;;20.02;7.68;;;10.10;95.10;;;;;;6186855;23;20008;-66
2023/03/08 02:33:59;;;;;;;17.55;7.28;;;10.00;95.00;;;;;;6186897;23;20058;-66
2023/03/08 02:36:25;;;;;;;17.80;7.53;;;10.10;95.10;;;;;;6186810;23;20031;-69
2023/03/08 02:38:50;;;;;;;16.10;6.68;;;10.00;95.00;;;;;;6186890;23;20052;-66
2023/03/08 02:41:16;;;;;;;17.92;7.38;;;10.00;94.90;;;;;;6186870;23;20128;-65
2023/03/08 02:43:42;;;;;;;20.80;7.10;;;10.00;94.90;;;;;;6186425;23;20001;-69
2023/03/08 02:46:11;;;;;;;19.92;7.63;;;10.00;94.60;;;;;;6186500;23;20084;-66
2023/03/08 02:48:37;;;;;;;18.17;7.18;;;10.10;94.30;;;;;;6186531;23;20005;-65
2023/03/08 02:51:02;;;;;;;20.98;8.30;;;10.10;94.20;;;;;;6186487;23;20008;-67
2023/03/08 02:53:28;;;;;;;18.00;7.45;;;10.10;94.20;;;;;;6186782;23;20040;-66
2023/03/08 02:55:54;;;;;;;22.42;7.50;;;10.10;94.10;;;;;;6186535;23;20024;-66
2023/03/08 02:58:20;;;;;;;19.93;7.77;;;10.00;94.10;;;;;;6186906;23;19997;-68
2023/03/08 03:00:45;;;;;;;24.08;8.18;;;10.00;94.20;;;;;;6186848;23;20047;-69
2023/03/08 03:03:11;;;;;;;20.00;6.85;;;10.00;94.20;;;;;;6186753;23;20024;-65
2023/03/08 03:05:42;;;;;;;17.50;8.35;;;10.00;94.20;;;;;;6186873;23;20201;-66
2023/03/08 03:08:08;;;;;;;25.17;7.60;;;9.90;94.30;;;;;;6186729;23;20009;-66
2023/03/08 03:10:35;;;;;;;16.63;7.43;;;9.90;94.30;;;;;;6186698;23;20001;-65
2023/03/08 03:13:02;;;;;;;17.50;7.40;;;9.90;94.40;;;;;;6186539;23;20084;-67
2023/03/08 03:15:28;;;;;;;20.35;8.13;;;9.90;94.40;;;;;;6186219;23;20009;-68
2023/03/08 03:17:53;;;;;;;16.25;7.45;;;9.90;94.50;;;;;;6186580;23;20005;-66
2023/03/08 03:20:19;;;;;;;16.33;8.23;;;9.90;94.50;;;;;;6186847;23;20055;-67
2023/03/08 03:22:46;;;;;;;15.73;7.70;;;9.90;94.50;;;;;;6186676;23;20004;-65
2023/03/08 03:25:12;;;;;;;15.03;6.80;;;9.80;94.50;;;;;;6185967;23;20327;-65
2023/03/08 03:27:38;;;;;;;13.80;7.27;;;9.90;94.80;;;;;;6186497;23;20423;-67
2023/03/08 03:30:06;;;;;;;20.75;8.30;;;9.80;94.60;;;;;;6186618;23;20051;-64
2023/03/08 03:32:31;;;;;;;18.45;8.20;;;9.80;94.70;;;;;;6186412;23;20005;-64
2023/03/08 03:34:57;;;;;;;27.77;9.47;;;9.80;94.70;;;;;;6186336;23;20435;-66
2023/03/08 03:37:23;;;;;;;18.53;8.20;;;9.80;94.80;;;;;;6186498;23;20419;-68
2023/03/08 03:39:48;;;;;;;16.30;8.40;;;9.70;94.80;;;;;;6186156;23;20435;-64
2023/03/08 03:42:14;;;;;;;20.10;8.77;;;9.70;94.80;;;;;;6186424;23;20335;-68
2023/03/08 03:44:40;;;;;;;26.17;8.53;;;9.70;94.80;;;;;;6186790;23;20012;-71
2023/03/08 03:47:06;;;;;;;17.77;9.00;;;9.70;94.80;;;;;;6186321;23;20498;-70
2023/03/08 03:49:32;;;;;;;21.73;9.30;;;9.70;94.90;;;;;;6186259;23;20001;-68
2023/03/08 03:51:57;;;;;;;18.47;8.87;;;9.70;94.90;;;;;;6186046;23;20083;-67
2023/03/08 03:54:23;;;;;;;21.00;8.40;;;9.70;95.00;;;;;;6186096;23;20471;-66
2023/03/08 03:56:49;;;;;;;22.10;7.63;;;9.70;95.00;;;;;;6186444;23;20083;-66
2023/03/08 03:59:14;;;;;;;21.10;8.10;;;9.70;95.00;;;;;;6186240;23;20411;-66
2023/03/08 04:01:40;;;;;;;16.73;7.85;;;9.70;94.90;;;;;;6186198;23;20001;-64
2023/03/08 04:04:06;;;;;;;17.13;6.90;;;9.70;94.90;;;;;;6186131;23;20085;-67
2023/03/08 04:06:33;;;;;;;16.97;8.23;;;9.80;94.90;;;;;;6186111;23;20331;-65
2023/03/08 04:09:01;;;;;;;17.77;7.83;;;9.70;94.80;;;;;;6186191;23;20004;-64
2023/03/08 04:11:32;;;;;;;21.93;8.20;;;9.70;94.80;;;;;;6186399;23;20522;-67
2023/03/08 04:13:57;;;;;;;19.20;8.50;;;9.70;94.80;;;;;;6185859;23;20005;-69
2023/03/08 04:16:26;;;;;;;15.53;8.10;;;9.70;94.80;;;;;;6186249;23;20016;-66
2023/03/08 04:18:54;;;;;;;17.80;8.37;;;9.70;94.80;;;;;;6186193;23;19997;-65
2023/03/08 04:21:20;;;;;;;21.80;8.50;;;9.70;94.80;;;;;;6186053;23;20016;-64
2023/03/08 04:23:46;;;;;;;16.53;8.00;;;9.70;94.80;;;;;;6186121;23;20384;-66
2023/03/08 04:26:12;;;;;;;18.67;7.80;;;9.70;94.80;;;;;;6186106;23;20029;-66
2023/03/08 04:28:38;;;;;;;13.27;7.67;;;9.70;94.80;;;;;;6186466;23;20128;-67
2023/03/08 04:31:22;;;;;;;12.07;7.57;;;9.70;94.80;;;;;;6186070;23;20004;-65
2023/03/08 04:33:49;;;;;;;18.93;8.63;;;9.70;94.90;;;;;;6185479;23;20009;-65
2023/03/08 04:36:16;;;;;;;24.67;8.63;;;9.70;94.90;;;;;;6185674;23;20017;-64
2023/03/08 04:38:43;;;;;;;19.07;8.20;;;9.60;94.90;;;;;;6185958;23;20001;-64
2023/03/08 04:41:11;;;;;;;44.43;31.53;;;9.60;94.80;;;;;;6185934;23;20009;-64
2023/03/08 04:43:39;;;;;;;40.70;25.77;;;9.60;94.90;;;;;;6185816;23;20001;-70
2023/03/08 04:46:06;;;;;;;32.13;22.53;;;9.60;94.90;;;;;;6185717;23;20005;-71
2023/03/08 04:48:32;;;;;;;22.03;14.43;;;9.60;95.00;;;;;;6185597;23;20005;-68
2023/03/08 04:51:01;;;;;;;18.77;11.80;;;9.60;95.00;;;;;;6185488;23;20383;-67
2023/03/08 04:53:28;;;;;;;18.80;12.70;;;9.60;95.00;;;;;;6185795;23;19993;-68
2023/03/08 04:55:54;;;;;;;18.30;12.70;;;9.70;95.10;;;;;;6185501;23;20009;-66
2023/03/08 04:58:20;;;;;;;25.07;13.03;;;9.60;95.10;;;;;;6185847;23;20052;-68
2023/03/08 05:00:46;;;;;;;19.20;10.27;;;9.60;95.10;;;;;;6185601;23;20084;-67
2023/03/08 05:03:13;;;;;;;22.83;9.07;;;9.60;95.20;;;;;;6186052;23;20008;-65
2023/03/08 05:05:49;;;;;;;19.70;9.73;;;9.60;95.30;;;;;;6185656;23;20024;-68
2023/03/08 05:08:15;;;;;;;15.63;9.40;;;9.60;95.30;;;;;;6185640;23;20004;-68
2023/03/08 05:10:56;;;;;;;19.27;9.20;;;9.60;95.30;;;;;;6185515;23;19997;-66
2023/03/08 05:13:23;;;;;;;16.47;8.10;;;9.60;95.30;;;;;;6185482;23;20012;-67
2023/03/08 05:15:49;;;;;;;19.53;8.13;;;9.60;95.30;;;;;;6185404;23;20009;-69
2023/03/08 05:18:14;;;;;;;17.92;9.07;;;9.60;95.30;;;;;;6185575;23;20001;-67
2023/03/08 05:20:40;;;;;;;19.20;9.37;;;9.60;95.30;;;;;;6185451;23;20051;-65
2023/03/08 05:23:06;;;;;;;18.30;8.03;;;9.70;95.30;;;;;;6185908;23;20004;-70
2023/03/08 05:25:32;;;;;;;24.93;7.97;;;9.70;95.30;;;;;;6185413;23;20005;-69
2023/03/08 05:27:58;;;;;;;18.20;7.73;;;9.70;95.20;;;;;;6185361;23;20009;-68
2023/03/08 05:30:24;;;;;;;16.40;6.97;;;9.70;95.20;;;;;;6185336;23;20007;-64
2023/03/08 05:32:50;;;;;;;17.47;7.53;;;9.60;95.10;;;;;;6185740;23;20012;-63
2023/03/08 05:35:15;;;;;;;18.53;8.37;;;9.60;95.10;;;;;;6184950;23;20009;-64
2023/03/08 05:37:41;;;;;;;14.77;7.87;;;9.60;95.10;;;;;;6185058;23;20001;-65
2023/03/08 05:40:07;;;;;;;19.00;8.90;;;9.60;95.00;;;;;;6185276;23;20048;-70
2023/03/08 05:42:33;;;;;;;17.33;8.10;;;9.60;95.00;;;;;;6158885;23;20370;-70
2023/03/08 05:44:59;;;;;;;20.33;8.07;;;9.60;95.00;;;;;;6185320;23;20080;-65
2023/03/08 05:47:24;;;;;;;21.30;8.57;;;9.60;95.00;;;;;;6183478;23;20044;-67
2023/03/08 05:49:50;;;;;;;16.47;8.17;;;9.50;95.10;;;;;;6185167;23;20012;-71
2023/03/08 05:52:16;;;;;;;15.87;8.33;;;9.60;95.10;;;;;;6185349;23;20012;-69
2023/03/08 05:54:42;;;;;;;18.40;9.30;;;9.50;95.20;;;;;;6185314;23;20005;-69
2023/03/08 05:57:07;;;;;;;21.67;9.20;;;9.60;95.30;;;;;;6185338;23;20009;-69
2023/03/08 05:59:33;;;;;;;16.00;8.80;;;9.60;95.40;;;;;;6185617;23;20009;-70
2023/03/08 06:01:59;;;;;;;16.40;9.50;;;9.50;95.40;;;;;;6187380;23;20004;-65
2023/03/08 06:04:24;;;;;;;16.30;9.83;;;9.60;95.40;;;;;;6187714;23;20390;-69
2023/03/08 06:06:50;;;;;;;14.40;8.80;;;9.50;95.40;;;;;;6187356;23;20079;-69
2023/03/08 06:09:16;;;;;;;19.43;8.90;;;9.60;95.40;;;;;;6187277;23;20001;-71
2023/03/08 06:11:41;;;;;;;21.40;8.73;;;9.50;95.40;;;;;;6186900;23;20004;-69
2023/03/08 06:14:07;;;;;;;17.00;8.33;;;9.50;95.40;;;;;;6187090;23;20005;-67
2023/03/08 06:16:32;;;;;;;25.07;10.07;;;9.50;95.40;;;;;;6186995;23;20016;-69
2023/03/08 06:19:00;;;;;;;19.20;8.37;;;9.50;95.50;;;;;;6186648;23;20001;-68
2023/03/08 06:21:26;;;;;;;17.20;9.47;;;9.60;95.60;;;;;;6186706;23;20331;-68
2023/03/08 06:23:52;;;;;;;20.03;9.07;;;9.50;95.60;;;;;;6186935;23;20001;-68
2023/03/08 06:26:18;;;;;;;16.70;10.13;;;9.60;95.60;;;;;;6186352;23;20032;-71
2023/03/08 06:28:43;;;;;;;19.27;10.10;;;9.60;95.70;;;;;;6187025;23;20008;-70
2023/03/08 06:31:14;;;;;;;21.53;12.03;;;9.60;95.80;;;;;;6186974;23;20061;-68
2023/03/08 06:33:40;;;;;;;23.37;11.93;;;9.60;95.80;;;;;;6187136;23;20313;-67
2023/03/08 06:36:10;;;;;;;24.73;11.87;;;9.60;95.90;;;;;;6186944;23;20088;-67
2023/03/08 06:38:38;;;;;;;22.33;11.33;;;9.70;95.90;;;;;;6186917;23;20001;-67
2023/03/08 06:41:05;;;;;;;22.73;11.50;;;9.70;95.90;;;;;;6186553;23;20001;-66
2023/03/08 06:43:31;;;;;;;20.63;10.77;;;9.70;95.90;;;;;;6187074;23;20077;-64
2023/03/08 06:45:57;;;;;;;18.40;11.03;;;9.80;95.90;;;;;;6186517;23;20085;-63
2023/03/08 06:48:23;;;;;;;20.67;10.90;;;9.80;95.90;;;;;;6186793;23;20045;-64
2023/03/08 06:50:49;;;;;;;29.77;11.63;;;9.90;96.10;;;;;;6186183;23;20001;-67
2023/03/08 06:53:14;;;;;;;18.17;10.82;;;9.90;95.90;;;;;;6186350;23;20076;-68
2023/03/08 06:55:41;;;;;;;17.90;10.20;;;9.90;95.90;;;;;;6186314;23;20094;-65
2023/03/08 06:58:07;;;;;;;20.60;10.17;;;10.00;95.90;;;;;;6186496;23;20012;-68
2023/03/08 07:00:33;;;;;;;21.73;9.93;;;10.10;95.90;;;;;;6186702;23;20424;-66
2023/03/08 07:02:59;;;;;;;34.67;11.63;;;10.10;95.80;;;;;;6186265;23;20005;-64
2023/03/08 07:05:25;;;;;;;29.20;12.10;;;10.10;95.70;;;;;;6186489;23;20004;-63
2023/03/08 07:07:51;;;;;;;25.63;12.38;;;10.10;95.70;;;;;;6184986;23;20009;-64
2023/03/08 07:10:19;;;;;;;27.00;13.43;;;10.20;95.70;;;;;;6186155;23;20450;-65
2023/03/08 07:12:48;;;;;;;33.33;11.70;;;10.20;95.70;;;;;;6186263;23;20012;-71
2023/03/08 07:15:15;;;;;;;32.33;13.07;;;10.20;95.70;;;;;;6186421;23;20376;-71
2023/03/08 07:17:42;;;;;;;23.70;12.10;;;10.20;95.60;;;;;;6186603;23;20005;-64
2023/03/08 07:20:09;;;;;;;20.13;12.10;;;10.20;95.60;;;;;;6185912;23;20092;-72
2023/03/08 07:22:35;;;;;;;24.90;11.87;;;10.30;95.50;;;;;;6186164;23;20005;-65
2023/03/08 07:25:01;;;;;;;23.73;10.83;;;10.30;95.60;;;;;;6186021;23;20490;-66
2023/03/08 07:27:26;;;;;;;21.23;11.55;;;10.30;95.60;;;;;;6184581;23;20059;-66
2023/03/08 07:29:52;;;;;;;21.77;11.40;;;10.40;95.50;;;;;;6186401;23;20035;-67
2023/03/08 07:32:18;;;;;;;38.65;12.82;;;10.40;95.50;;;;;;6186190;23;20005;-69
2023/03/08 07:34:44;;;;;;;20.08;11.45;;;10.40;95.40;;;;;;6186197;23;20005;-65
2023/03/08 07:37:14;;;;;;;23.23;11.15;;;10.40;95.30;;;;;;6185977;23;20305;-65
2023/03/08 07:39:41;;;;;;;20.70;9.30;;;10.50;95.30;;;;;;6185872;23;20028;-66
2023/03/08 07:42:07;;;;;;;21.95;8.88;;;10.50;95.30;;;;;;6186126;23;20005;-65
2023/03/08 07:44:33;;;;;;;16.67;8.93;;;10.60;95.20;;;;;;6186067;23;20009;-65
2023/03/08 07:46:58;;;;;;;17.92;8.90;;;10.60;95.20;;;;;;6185643;23;20009;-65
2023/03/08 07:49:24;;;;;;;18.25;8.63;;;10.60;95.10;;;;;;6185893;23;20005;-65
2023/03/08 07:51:53;;;;;;;26.27;8.75;;;10.70;95.10;;;;;;6186006;23;20008;-65
2023/03/08 07:54:19;;;;;;;13.80;4.95;;;10.70;95.00;;;;;;6185526;23;20047;-65
2023/03/08 07:56:44;;;;;;;11.98;5.20;;;10.80;94.90;;;;;;6185484;23;20005;-67
2023/03/08 07:59:10;;;;;;;24.88;10.48;;;10.80;94.50;;;;;;6185553;23;20008;-64
2023/03/08 08:01:36;;;;;;;28.52;11.20;;;10.90;94.40;;;;;;6185856;23;20097;-66
2023/03/08 08:04:02;;;;;;;20.77;10.90;;;10.90;94.40;;;;;;6185777;23;19998;-68
2023/03/08 08:06:28;;;;;;;25.17;11.05;;;11.00;94.60;;;;;;6185733;23;20036;-67
2023/03/08 08:08:55;;;;;;;18.30;10.00;;;11.00;94.60;;;;;;6184458;23;20009;-68
2023/03/08 08:11:21;;;;;;;16.50;7.18;;;11.10;94.60;;;;;;6183216;23;20001;-69
2023/03/08 08:13:47;;;;;;;15.30;4.80;;;11.10;94.50;;;;;;6185520;23;20001;-68
2023/03/08 08:16:14;;;;;;;9.10;4.32;;;11.10;94.30;;;;;;6186119;23;20024;-67
2023/03/08 08:18:39;;;;;;;9.10;4.38;;;11.20;94.10;;;;;;6185856;23;20002;-68
2023/03/08 08:21:10;;;;;;;11.55;4.07;;;11.20;93.60;;;;;;6185474;23;20337;-67
2023/03/08 08:23:37;;;;;;;9.25;4.20;;;11.20;93.30;;;;;;6185292;23;20009;-67
2023/03/08 08:26:17;;;;;;;7.97;4.15;;;11.20;92.80;;;;;;6185661;23;20419;-66
2023/03/08 08:28:47;;;;;;;6.43;3.95;;;11.30;92.70;;;;;;6186239;23;20009;-66
2023/03/08 08:31:15;;;;;;;9.15;3.90;;;11.30;92.60;;;;;;6185781;23;20332;-68
2023/03/08 08:33:41;;;;;;;12.35;3.90;;;11.30;92.50;;;;;;6185671;23;20027;-66
2023/03/08 08:36:13;;;;;;;7.90;4.15;;;11.30;92.40;;;;;;6185702;23;20499;-66
2023/03/08 08:38:39;;;;;;;8.23;4.00;;;11.40;92.40;;;;;;6184587;23;20080;-66
2023/03/08 08:41:07;;;;;;;8.13;4.13;;;11.40;92.40;;;;;;6184004;23;20051;-66
2023/03/08 08:43:34;;;;;;;8.07;3.55;;;11.50;92.60;;;;;;6184653;23;20486;-67
2023/03/08 08:46:00;;;;;;;12.50;3.92;;;11.60;92.50;;;;;;6185256;23;20055;-67
2023/03/08 08:48:27;;;;;;;18.63;4.50;;;11.60;92.30;;;;;;6185794;23;20383;-67
2023/03/08 08:50:53;;;;;;;9.55;3.70;;;11.70;92.20;;;;;;6185580;23;20001;-67
2023/03/08 08:53:20;;;;;;;8.73;3.65;;;11.70;92.00;;;;;;6182160;23;20511;-67
2023/03/08 08:55:46;;;;;;;7.90;3.30;;;11.80;91.80;;;;;;6184106;23;20041;-68
2023/03/08 08:58:12;;;;;;;5.80;3.22;;;11.80;91.60;;;;;;6185177;23;19997;-67
2023/03/08 09:00:37;;;;;;;8.35;3.75;;;11.90;91.40;;;;;;6185580;23;20012;-67
2023/03/08 09:03:04;;;;;;;10.80;4.35;;;11.90;91.30;;;;;;6185845;23;20004;-67
2023/03/08 09:05:31;;;;;;;9.88;4.20;;;11.90;91.10;;;;;;6185882;23;20008;-67
2023/03/08 09:07:58;;;;;;;7.72;3.85;;;11.90;91.10;;;;;;6159339;23;20331;-67
2023/03/08 09:10:28;;;;;;;7.75;3.72;;;11.90;91.10;;;;;;6185756;23;20005;-67
2023/03/08 09:12:54;;;;;;;9.55;3.40;;;12.00;91.10;;;;;;6185567;23;20005;-66
2023/03/08 09:15:21;;;;;;;7.78;3.05;;;11.90;91.00;;;;;;6185766;23;20060;-67
2023/03/08 09:17:48;;;;;;;7.88;3.42;;;12.00;91.00;;;;;;6185741;23;20002;-67
2023/03/08 09:20:14;;;;;;;10.10;3.00;;;12.00;90.90;;;;;;6185681;23;20059;-67
2023/03/08 09:22:40;;;;;;;7.00;3.08;;;12.10;90.80;;;;;;6185733;23;20004;-67
2023/03/08 09:25:07;;;;;;;9.77;2.67;;;12.10;90.70;;;;;;6185660;23;20029;-67
2023/03/08 09:27:34;;;;;;;7.00;3.42;;;12.20;90.70;;;;;;6185367;23;20001;-69
2023/03/08 09:29:59;;;;;;;8.10;3.25;;;12.20;90.70;;;;;;6185323;23;20072;-67
2023/03/08 09:32:25;;;;;;;9.35;3.30;;;12.20;90.40;;;;;;6185481;23;20031;-66
2023/03/08 09:34:52;;;;;;;6.25;2.90;;;12.30;90.40;;;;;;6183757;23;20093;-67
2023/03/08 09:37:18;;;;;;;8.40;3.10;;;12.30;90.40;;;;;;6185863;23;20013;-67
2023/03/08 09:39:44;;;;;;;7.30;2.88;;;12.30;90.40;;;;;;6185740;23;20009;-67
2023/03/08 09:42:23;;;;;;;5.22;2.83;;;12.30;90.30;;;;;;6185296;23;20001;-67
2023/03/08 09:45:16;;;;;;;6.63;3.30;;;12.30;90.20;;;;;;6185560;23;20012;-67
2023/03/08 09:47:53;;;;;;;8.65;2.72;;;12.40;90.10;;;;;;6185114;23;20021;-67
2023/03/08 09:50:33;;;;;;;7.75;2.90;;;12.40;89.90;;;;;;6185605;23;20031;-68
2023/03/08 09:53:23;;;;;;;7.70;3.20;;;12.40;89.10;;;;;;6185484;23;20031;-66
2023/03/08 09:55:55;;;;;;;7.43;2.80;;;12.40;88.70;;;;;;6159007;23;20059;-67
2023/03/08 09:58:30;;;;;;;12.20;3.20;;;12.30;88.80;;;;;;6185412;23;20032;-67
2023/03/08 10:01:13;;;;;;;13.57;3.00;;;12.30;89.10;;;;;;6185373;23;20005;-67
2023/03/08 10:03:59;;;;;;;8.15;2.70;;;12.30;89.60;;;;;;6185569;23;20001;-67
2023/03/08 10:06:45;;;;;;;6.28;2.75;;;12.30;89.50;;;;;;6185638;23;20008;-67
2023/03/08 10:09:36;;;;;;;13.43;4.30;;;12.30;88.70;;;;;;6185147;23;20309;-67
2023/03/08 10:12:15;;;;;;;11.48;4.15;;;12.30;88.30;;;;;;6171294;23;20005;-67
2023/03/08 10:14:55;;;;;;;5.07;2.70;;;12.30;88.00;;;;;;6185200;23;20008;-66
2023/03/08 10:17:25;;;;;;;6.20;2.80;;;12.30;88.00;;;;;;6185324;23;20175;-67
2023/03/08 10:19:58;;;;;;;6.25;2.42;;;12.20;88.00;;;;;;6185180;23;20029;-67
2023/03/08 10:22:31;;;;;;;6.43;2.40;;;12.20;88.30;;;;;;6185348;23;20005;-66
2023/03/08 10:25:01;;;;;;;5.30;2.20;;;12.20;87.90;;;;;;6185008;23;20001;-67
2023/03/08 10:27:31;;;;;;;7.65;2.50;;;12.20;88.00;;;;;;6185332;23;20040;-66
2023/03/08 10:29:58;;;;;;;4.68;1.98;;;12.30;87.90;;;;;;6159002;23;20336;-67
2023/03/08 10:32:25;;;;;;;3.58;1.77;;;12.30;87.70;;;;;;6185248;23;20001;-67
2023/03/08 10:34:51;;;;;;;6.57;2.22;;;12.20;87.50;;;;;;6184945;23;20008;-67
2023/03/08 10:37:20;;;;;;;7.10;2.00;;;12.30;87.60;;;;;;6185488;23;20005;-66
2023/03/08 10:39:53;;;;;;;9.85;2.67;;;12.30;87.50;;;;;;6185660;23;20009;-67
2023/03/08 10:42:25;;;;;;;6.55;2.20;;;12.30;87.50;;;;;;6185539;23;20126;-66
2023/03/08 10:44:56;;;;;;;8.02;2.30;;;12.40;87.50;;;;;;6185065;23;20324;-67
2023/03/08 10:47:29;;;;;;;5.00;1.70;;;12.40;87.40;;;;;;6186498;23;20440;-67
2023/03/08 10:50:04;;;;;;;4.90;2.00;;;12.50;87.00;;;;;;6187096;23;20032;-68
2023/03/08 10:52:30;;;;;;;4.95;2.30;;;12.50;86.70;;;;;;6186871;23;20449;-67
2023/03/08 10:55:14;;;;;;;4.53;2.03;;;12.50;86.30;;;;;;6187054;23;20001;-67
2023/03/08 10:57:47;;;;;;;5.47;2.10;;;12.60;86.60;;;;;;6187069;23;20005;-67
2023/03/08 11:00:16;;;;;;;9.70;2.30;;;12.60;87.10;;;;;;6186807;23;19997;-67
2023/03/08 11:02:42;;;;;;;7.45;3.05;;;12.70;87.00;;;;;;6186997;23;20009;-67
2023/03/08 11:05:27;;;;;;;11.85;2.40;;;12.70;85.90;;;;;;6186861;23;20005;-67
2023/03/08 11:07:55;;;;;;;8.40;2.30;;;12.70;86.40;;;;;;6186784;23;20001;-67
2023/03/08 11:10:23;;;;;;;6.32;2.38;;;12.70;86.60;;;;;;6187044;23;20423;-67
2023/03/08 11:13:10;;;;;;;5.32;2.10;;;12.80;86.90;;;;;;6187206;23;20001;-67
2023/03/08 11:15:39;;;;;;;7.47;2.17;;;12.80;86.80;;;;;;6187103;23;20438;-67
2023/03/08 11:18:29;;;;;;;7.60;2.17;;;12.90;87.10;;;;;;6186512;23;20004;-67
2023/03/08 11:20:59;;;;;;;7.43;2.10;;;12.90;86.60;;;;;;6186884;23;20378;-68
2023/03/08 11:23:47;;;;;;;8.25;1.98;;;12.90;86.10;;;;;;6186729;23;20001;-67
2023/03/08 11:26:50;;;;;;;5.25;2.22;;;12.90;86.20;;;;;;6186470;23;20011;-66
2023/03/08 11:29:28;;;;;;;6.13;2.08;;;12.90;85.10;;;;;;6125754;23;20083;-67
2023/03/08 11:32:15;;;;;;;4.70;1.85;;;12.90;85.40;;;;;;6186657;23;20012;-66
2023/03/08 11:34:52;;;;;;;8.13;2.72;;;12.90;85.80;;;;;;6186398;23;20009;-66
2023/03/08 11:37:25;;;;;;;8.70;2.10;;;12.90;85.60;;;;;;6186662;23;20005;-67
2023/03/08 11:40:25;;;;;;;5.15;2.00;;;12.90;85.80;;;;;;6186777;23;20036;-67
2023/03/08 11:43:18;;;;;;;6.47;1.98;;;13.00;85.70;;;;;;6180346;23;20056;-67
2023/03/08 11:46:10;;;;;;;13.07;2.50;;;13.00;85.70;;;;;;6186244;23;20327;-67
2023/03/08 11:49:08;;;;;;;4.50;1.70;;;13.00;85.40;;;;;;6186760;23;20375;-67
2023/03/08 11:51:53;;;;;;;6.20;1.60;;;13.00;85.50;;;;;;6186094;23;20008;-69
2023/03/08 11:54:35;;;;;;;10.82;2.40;;;13.00;85.50;;;;;;6185833;23;20012;-69
2023/03/08 11:57:08;;;;;;;8.25;1.88;;;13.00;85.70;;;;;;6185836;23;20032;-67
2023/03/08 11:59:39;;;;;;;6.95;2.08;;;13.00;85.70;;;;;;6185735;23;20001;-66
2023/03/08 12:02:05;;;;;;;4.93;2.00;;;13.00;85.40;;;;;;6185994;23;20001;-67
2023/03/08 12:04:45;;;;;;;3.85;1.73;;;13.00;85.40;;;;;;6185877;23;20084;-67
2023/03/08 12:07:39;;;;;;;6.70;2.42;;;13.00;85.30;;;;;;6185885;23;20076;-65
2023/03/08 12:10:20;;;;;;;4.43;1.60;;;13.00;85.90;;;;;;6185664;23;20012;-66
2023/03/08 12:13:08;;;;;;;3.90;1.73;;;13.00;85.90;;;;;;6186204;23;20001;-68
2023/03/08 12:15:55;;;;;;;8.15;2.30;;;13.00;86.00;;;;;;6185660;23;20028;-67
2023/03/08 12:18:33;;;;;;;3.83;1.60;;;13.00;85.40;;;;;;6185755;23;20075;-68
2023/03/08 12:21:18;;;;;;;5.00;2.08;;;13.00;85.00;;;;;;6185858;23;20044;-67
2023/03/08 12:23:59;;;;;;;4.95;2.20;;;13.00;84.80;;;;;;6185783;23;20005;-66
2023/03/08 12:26:34;;;;;;;3.65;1.63;;;13.00;84.80;;;;;;6185862;23;20001;-68
2023/03/08 12:29:08;;;;;;;3.45;2.03;;;13.00;84.10;;;;;;6185736;23;20005;-67
2023/03/08 12:31:43;;;;;;;5.15;2.47;;;12.90;83.70;;;;;;6185408;23;20029;-66
2023/03/08 12:34:32;;;;;;;9.52;2.28;;;12.90;84.20;;;;;;6185706;23;20087;-66
2023/03/08 12:36:57;;;;;;;4.07;2.00;;;12.90;84.40;;;;;;6185737;23;20009;-67
2023/03/08 12:39:35;;;;;;;3.72;1.60;;;12.90;84.90;;;;;;6186139;23;20015;-66
2023/03/08 12:42:09;;;;;;;3.70;1.70;;;12.90;84.90;;;;;;6185972;23;20052;-67
2023/03/08 12:44:37;;;;;;;2.80;1.80;;;12.90;85.00;;;;;;6185847;23;20072;-69
2023/03/08 12:47:21;;;;;;;7.18;1.88;;;12.90;85.10;;;;;;6184903;23;20040;-67
2023/03/08 12:49:55;;;;;;;4.25;1.63;;;12.90;84.80;;;;;;6185323;23;20001;-68
2023/03/08 12:52:23;;;;;;;6.43;1.83;;;12.80;83.90;;;;;;6185573;23;20339;-67